Time;durP1;ratioP1;P1;durP2;ratioP2;P2;SDS_P1;SDS_P2;PMS_P1;PMS_P2;Temp;Humidity;BMP_temperature;BMP_pressure;BME280_temperature;BME280_humidity;BME280_pressure;Samples;Min_cycle;Max_cycle;Signal;HPM_P1;HPM_P2
2023/06/19 00:01:18;;;;;;;11.05;9.38;;;;;;;22.53;60.49;100645.75;5090765;28;20533;-75
2023/06/19 00:03:44;;;;;;;10.52;8.18;;;;;;;22.49;60.19;100638.59;5098368;28;20523;-75
2023/06/19 00:06:09;;;;;;;11.55;8.95;;;;;;;22.55;59.57;100644.50;5093902;28;20067;-74
2023/06/19 00:08:36;;;;;;;10.90;8.15;;;;;;;22.47;59.33;100641.13;5091924;28;20154;-75
2023/06/19 00:11:01;;;;;;;9.77;8.30;;;;;;;22.50;59.21;100640.19;5092872;28;20028;-74
2023/06/19 00:13:26;;;;;;;13.07;9.80;;;;;;;22.49;58.83;100639.41;5091634;28;20483;-74
2023/06/19 00:15:52;;;;;;;10.05;8.00;;;;;;;22.53;58.73;100640.03;5091201;28;20122;-75
2023/06/19 00:18:19;;;;;;;11.00;8.50;;;;;;;22.57;58.32;100627.72;5075759;28;20039;-74
2023/06/19 00:20:46;;;;;;;9.45;8.43;;;;;;;22.57;58.97;100644.81;5093137;28;20028;-74
2023/06/19 00:23:14;;;;;;;12.07;8.75;;;;;;;22.56;58.65;100626.94;5091769;28;20035;-74
2023/06/19 00:25:43;;;;;;;10.55;8.50;;;;;;;22.48;58.32;100640.66;5088267;28;20047;-74
2023/06/19 00:28:11;;;;;;;13.80;7.88;;;;;;;22.50;58.62;100632.44;5087650;28;20054;-75
2023/06/19 00:30:37;;;;;;;11.27;7.88;;;;;;;22.57;58.09;100639.13;5067700;28;20024;-74
2023/06/19 00:33:03;;;;;;;11.40;7.75;;;;;;;22.52;57.76;100637.69;5094141;28;20047;-75
2023/06/19 00:35:28;;;;;;;9.57;7.47;;;;;;;22.55;57.80;100635.94;5081342;28;20041;-74
2023/06/19 00:37:53;;;;;;;9.88;8.40;;;;;;;22.53;58.10;100642.91;5086847;28;20083;-74
2023/06/19 00:40:33;;;;;;;11.88;8.63;;;;;;;22.55;58.29;100641.66;5091256;28;20096;-74
2023/06/19 00:42:59;;;;;;;10.23;8.13;;;;;;;22.55;57.94;100636.72;5092437;28;20394;-75
2023/06/19 00:45:25;;;;;;;9.40;8.18;;;;;;;22.53;58.08;100628.63;5089762;28;20031;-74
2023/06/19 00:47:55;;;;;;;10.02;7.95;;;;;;;22.57;58.27;100639.13;5079515;28;20028;-75
2023/06/19 00:50:24;;;;;;;9.48;7.82;;;;;;;22.53;58.74;100628.63;5097683;28;20039;-74
2023/06/19 00:52:50;;;;;;;9.95;7.03;;;;;;;22.55;58.24;100619.63;5093741;28;20683;-74
2023/06/19 00:55:17;;;;;;;10.60;8.73;;;;;;;22.56;58.61;100631.81;5092289;28;20038;-73
2023/06/19 00:57:43;;;;;;;11.40;8.50;;;;;;;22.56;58.19;100626.94;5087462;28;20035;-74
2023/06/19 01:00:11;;;;;;;10.55;8.20;;;;;;;22.53;58.96;100637.19;5093425;28;20453;-74
2023/06/19 01:02:37;;;;;;;10.10;7.72;;;;;;;22.60;58.90;100632.47;5076424;28;20119;-73
2023/06/19 01:05:03;;;;;;;9.13;7.53;;;;;;;22.48;58.97;100625.59;5099469;28;20067;-73
2023/06/19 01:07:40;;;;;;;10.43;8.15;;;;;;;22.57;59.03;100639.13;5095449;28;20114;-74
2023/06/19 01:10:09;;;;;;;9.25;7.60;;;;;;;22.55;59.07;100635.94;5097688;28;20024;-74
2023/06/19 01:12:38;;;;;;;10.80;7.78;;;;;;;22.59;59.07;100630.88;5097256;28;20030;-74
2023/06/19 01:15:05;;;;;;;10.40;7.63;;;;;;;22.63;59.07;100626.63;5098200;28;20034;-74
2023/06/19 01:17:31;;;;;;;9.60;7.45;;;;;;;22.56;59.21;100626.09;5092436;28;21531;-73
2023/06/19 01:19:57;;;;;;;8.98;7.07;;;;;;;22.53;59.22;100628.63;5081584;28;20035;-74
2023/06/19 01:22:26;;;;;;;11.23;8.70;;;;;;;22.51;59.41;100631.16;5104641;28;20024;-73
2023/06/19 01:24:51;;;;;;;8.95;7.38;;;;;;;22.56;59.73;100637.50;5092768;28;20050;-73
2023/06/19 01:27:16;;;;;;;9.38;7.60;;;;;;;22.51;59.54;100634.00;5094690;28;20032;-73
2023/06/19 01:29:42;;;;;;;9.65;8.07;;;;;;;22.45;60.26;100633.06;5080380;28;20765;-74
2023/06/19 01:32:15;;;;;;;10.82;8.07;;;;;;;22.44;60.54;100647.78;5096747;28;20036;-74
2023/06/19 01:34:42;;;;;;;18.02;8.25;;;;;;;22.44;60.32;100628.59;5098342;28;20392;-74
2023/06/19 01:37:10;;;;;;;9.95;7.85;;;;;;;22.42;60.71;100633.97;5095742;28;20479;-73
2023/06/19 01:39:36;;;;;;;8.25;6.57;;;;;;;22.47;60.53;100635.41;5088821;28;20035;-74
2023/06/19 01:42:03;;;;;;;9.52;7.45;;;;;;;22.38;62.32;100639.00;5092683;28;20469;-74
2023/06/19 01:44:29;;;;;;;10.10;7.20;;;;;;;22.37;61.31;100643.13;5077734;28;20565;-73
2023/06/19 01:46:54;;;;;;;10.10;7.20;;;;;;;22.43;61.24;100644.13;5094374;28;20066;-73
2023/06/19 01:49:20;;;;;;;9.13;7.75;;;;;;;22.36;62.45;100650.09;5099112;28;20032;-73
2023/06/19 01:51:45;;;;;;;10.85;7.80;;;;;;;22.32;63.47;100652.28;5100174;28;20019;-74
2023/06/19 01:54:10;;;;;;;7.82;6.38;;;;;;;22.39;63.17;100651.22;5091402;28;20020;-74
2023/06/19 01:56:36;;;;;;;9.50;7.68;;;;;;;22.37;62.07;100651.69;5094662;28;20054;-74
2023/06/19 01:59:02;;;;;;;10.05;7.53;;;;;;;22.32;64.17;100640.88;5096438;28;20024;-73
2023/06/19 02:01:27;;;;;;;9.38;7.45;;;;;;;22.29;64.56;100650.38;5094634;28;20565;-73
2023/06/19 02:03:52;;;;;;;9.43;7.82;;;;;;;22.27;63.72;100655.75;5093541;28;20038;-73
2023/06/19 02:06:18;;;;;;;10.57;7.65;;;;;;;22.19;65.37;100654.38;5094974;28;20035;-74
2023/06/19 02:08:43;;;;;;;9.23;7.90;;;;;;;22.22;65.33;100662.00;5097184;28;20027;-74
2023/06/19 02:11:09;;;;;;;9.40;7.28;;;;;;;22.22;64.61;100653.44;5096287;28;20933;-74
2023/06/19 02:13:34;;;;;;;9.18;7.20;;;;;;;22.16;66.30;100655.28;5097855;28;20019;-74
2023/06/19 02:15:59;;;;;;;8.35;7.05;;;;;;;22.24;64.58;100656.66;5095552;28;20061;-74
2023/06/19 02:18:25;;;;;;;9.48;7.32;;;;;;;22.27;63.16;100655.75;5097352;28;20139;-74
2023/06/19 02:20:50;;;;;;;9.38;7.07;;;;;;;22.19;64.35;100654.38;5098535;28;20466;-74
2023/06/19 02:23:15;;;;;;;8.55;7.30;;;;;;;22.21;64.77;100651.88;5099447;28;20029;-73
2023/06/19 02:25:41;;;;;;;7.63;6.88;;;;;;;22.06;67.80;100658.09;5079032;28;20306;-74
2023/06/19 02:28:06;;;;;;;8.05;6.63;;;;;;;22.08;67.68;100654.78;5094460;28;20495;-73
2023/06/19 02:30:31;;;;;;;7.88;6.13;;;;;;;22.08;67.65;100658.41;5096966;28;20485;-74
2023/06/19 02:32:57;;;;;;;6.35;5.30;;;;;;;22.13;67.22;100662.72;5092977;28;20020;-74
2023/06/19 02:35:22;;;;;;;8.15;6.10;;;;;;;22.01;68.40;100660.72;5096755;28;20089;-73
2023/06/19 02:37:49;;;;;;;6.50;5.35;;;;;;;22.08;67.07;100661.28;5096637;28;20099;-73
2023/06/19 02:40:14;;;;;;;7.72;5.10;;;;;;;22.03;68.58;100664.72;5098612;28;20059;-74
2023/06/19 02:42:40;;;;;;;6.07;4.30;;;;;;;21.99;69.95;100669.75;5091447;28;20024;-74
2023/06/19 02:45:05;;;;;;;5.78;4.60;;;;;;;21.99;70.30;100674.66;5080289;28;20377;-74
2023/06/19 02:47:31;;;;;;;8.70;4.32;;;;;;;21.92;70.42;100681.41;5092880;28;20039;-73
2023/06/19 02:49:59;;;;;;;4.93;3.33;;;;;;;21.88;71.99;100683.56;5098844;28;20111;-73
2023/06/19 02:52:24;;;;;;;5.22;3.45;;;;;;;21.84;69.85;100689.44;5092630;28;20032;-73
2023/06/19 02:54:50;;;;;;;5.57;3.40;;;;;;;21.80;73.21;100683.06;5071643;28;20038;-74
2023/06/19 02:57:15;;;;;;;6.20;3.90;;;;;;;21.66;74.37;100701.44;5098961;28;20036;-73
2023/06/19 02:59:40;;;;;;;4.97;3.58;;;;;;;21.55;75.06;100700.22;5094476;28;20023;-73
2023/06/19 03:02:05;;;;;;;6.25;4.43;;;;;;;21.62;73.35;100703.59;5076830;28;20024;-73
2023/06/19 03:04:31;;;;;;;5.57;3.70;;;;;;;21.46;75.83;100706.59;5092268;28;20436;-74
2023/06/19 03:06:56;;;;;;;4.80;3.47;;;;;;;21.51;75.21;100697.47;5096060;28;20110;-73
2023/06/19 03:09:21;;;;;;;5.18;3.33;;;;;;;21.70;73.98;100699.25;5095290;28;20031;-74
2023/06/19 03:11:47;;;;;;;6.00;4.05;;;;;;;21.62;73.30;100703.59;5091699;28;20118;-74
2023/06/19 03:14:12;;;;;;;4.13;3.40;;;;;;;21.65;71.75;100716.13;5079390;28;20058;-74
2023/06/19 03:16:37;;;;;;;5.85;4.20;;;;;;;21.51;75.51;100708.88;5098203;28;20118;-73
2023/06/19 03:19:03;;;;;;;5.60;4.28;;;;;;;21.66;72.22;100706.34;5099105;28;20032;-73
2023/06/19 03:21:28;;;;;;;6.57;4.38;;;;;;;21.42;75.73;100705.91;5097823;28;20054;-74
2023/06/19 03:23:54;;;;;;;4.82;3.78;;;;;;;21.54;72.14;100710.78;5097264;28;20028;-73
2023/06/19 03:26:20;;;;;;;5.18;4.22;;;;;;;21.50;73.21;100718.66;5095647;28;20484;-74
2023/06/19 03:28:48;;;;;;;6.93;4.57;;;;;;;21.42;76.71;100714.44;5093910;28;20036;-73
2023/06/19 03:31:14;;;;;;;5.57;3.40;;;;;;;21.23;77.45;100713.41;5092157;28;20020;-74
2023/06/19 03:33:40;;;;;;;5.65;3.97;;;;;;;21.36;78.19;100707.72;5092739;28;20140;-73
2023/06/19 03:36:05;;;;;;;5.85;3.50;;;;;;;21.48;74.02;100713.44;5094914;28;20542;-74
2023/06/19 03:38:31;;;;;;;4.38;3.45;;;;;;;21.38;78.28;100713.75;5075681;28;20459;-74
2023/06/19 03:40:56;;;;;;;5.22;3.08;;;;;;;21.31;75.52;100724.13;5098604;28;20081;-74
2023/06/19 03:43:22;;;;;;;7.50;3.22;;;;;;;21.26;75.88;100727.53;5099000;28;20020;-73
2023/06/19 03:45:47;;;;;;;4.13;2.88;;;;;;;21.20;79.08;100731.41;5093041;28;20028;-73
2023/06/19 03:48:12;;;;;;;3.63;3.15;;;;;;;21.34;74.24;100727.31;5090802;28;20024;-73
2023/06/19 03:50:38;;;;;;;6.80;3.38;;;;;;;20.95;81.88;100729.34;5093031;28;20027;-73
2023/06/19 03:53:04;;;;;;;3.65;2.92;;;;;;;21.00;82.26;100740.19;5093229;28;20069;-74
2023/06/19 03:55:29;;;;;;;4.95;3.20;;;;;;;21.03;82.01;100742.09;5098465;28;20027;-73
2023/06/19 03:57:55;;;;;;;5.28;4.18;;;;;;;20.82;82.81;100744.34;5094797;28;20035;-73
2023/06/19 04:00:20;;;;;;;4.10;2.85;;;;;;;21.04;82.94;100743.69;5094955;28;20065;-74
2023/06/19 04:02:48;;;;;;;4.30;2.60;;;;;;;20.91;81.98;100750.19;5097526;28;20070;-73
2023/06/19 04:05:17;;;;;;;4.20;3.22;;;;;;;21.06;79.33;100752.56;5096756;28;20081;-73
2023/06/19 04:07:43;;;;;;;3.53;2.78;;;;;;;21.03;82.13;100742.09;5087341;28;20037;-74
2023/06/19 04:10:08;;;;;;;7.03;3.80;;;;;;;20.91;85.78;100747.34;5091875;28;20407;-73
2023/06/19 04:12:34;;;;;;;5.63;3.28;;;;;;;21.04;82.97;100730.28;5088897;28;20085;-73
2023/06/19 04:14:59;;;;;;;5.07;3.58;;;;;;;20.93;83.99;100732.63;5088903;28;20103;-73
2023/06/19 04:17:24;;;;;;;4.70;3.08;;;;;;;20.84;85.04;100736.16;5094096;28;20062;-74
2023/06/19 04:19:50;;;;;;;4.93;3.13;;;;;;;20.78;87.11;100740.81;5091994;28;20027;-73
2023/06/19 04:22:15;;;;;;;4.07;3.10;;;;;;;20.85;82.67;100743.47;5091408;28;20031;-73
2023/06/19 04:24:41;;;;;;;3.75;3.05;;;;;;;21.00;84.71;100737.34;5094830;28;20043;-74
2023/06/19 04:27:08;;;;;;;5.18;3.47;;;;;;;20.72;88.86;100754.00;5092424;28;20466;-74
2023/06/19 04:29:33;;;;;;;4.75;3.40;;;;;;;20.83;86.89;100751.66;5094306;28;20028;-73
2023/06/19 04:31:59;;;;;;;3.38;2.80;;;;;;;20.86;82.55;100750.72;5089541;28;20510;-74
2023/06/19 04:34:25;;;;;;;5.68;3.72;;;;;;;20.83;87.33;100751.66;5092491;28;20111;-73
2023/06/19 04:36:50;;;;;;;4.97;3.20;;;;;;;20.76;89.24;100762.44;5095720;28;20106;-74
2023/06/19 04:39:16;;;;;;;5.85;3.33;;;;;;;20.91;87.79;100752.22;5098150;28;20027;-73
2023/06/19 04:41:43;;;;;;;4.15;3.20;;;;;;;20.96;85.91;100760.19;5081190;28;20020;-73
2023/06/19 04:44:11;;;;;;;5.25;3.42;;;;;;;20.90;88.48;100762.81;5097527;28;20074;-74
2023/06/19 04:46:40;;;;;;;6.05;3.40;;;;;;;20.90;87.20;100751.41;5090139;28;20031;-73
2023/06/19 04:49:05;;;;;;;4.68;3.42;;;;;;;21.00;90.34;100758.03;5088489;28;20418;-74
2023/06/19 04:51:32;;;;;;;4.63;3.63;;;;;;;21.12;88.49;100767.84;5090701;28;20042;-74
2023/06/19 04:54:01;;;;;;;4.68;3.53;;;;;;;21.05;87.83;100776.59;5096936;28;20027;-73
2023/06/19 04:56:27;;;;;;;4.65;3.47;;;;;;;21.00;88.68;100777.19;5097948;28;20027;-74
2023/06/19 04:58:55;;;;;;;4.25;3.22;;;;;;;20.99;91.53;100767.03;5084961;28;20039;-73
2023/06/19 05:01:27;;;;;;;5.45;3.65;;;;;;;20.95;90.47;100772.03;5094303;28;20036;-73
2023/06/19 05:03:54;;;;;;;6.05;3.90;;;;;;;21.03;91.90;100779.09;5104390;28;20027;-74
2023/06/19 05:06:20;;;;;;;4.30;3.00;;;;;;;21.09;84.72;100777.28;5082903;28;20104;-73
2023/06/19 05:08:45;;;;;;;3.80;3.30;;;;;;;20.97;93.25;100778.06;5101554;28;20432;-74
2023/06/19 05:11:10;;;;;;;4.45;3.97;;;;;;;21.14;89.11;100788.09;5092535;28;20024;-73
2023/06/19 05:13:36;;;;;;;4.55;3.15;;;;;;;21.18;89.31;100785.94;5094512;28;20272;-74
2023/06/19 05:16:01;;;;;;;4.45;3.40;;;;;;;21.14;88.96;100793.78;5097912;28;20031;-73
2023/06/19 05:18:26;;;;;;;4.45;3.83;;;;;;;21.10;92.13;100796.75;5103861;28;20038;-74
2023/06/19 05:20:52;;;;;;;6.25;4.30;;;;;;;21.15;93.87;100794.59;5101004;28;20028;-74
2023/06/19 05:23:17;;;;;;;6.47;4.30;;;;;;;21.31;93.57;100808.72;5103429;28;20506;-73
2023/06/19 05:25:43;;;;;;;6.22;5.00;;;;;;;21.11;95.51;100809.72;5099197;28;20043;-73
2023/06/19 05:28:09;;;;;;;8.07;4.75;;;;;;;21.22;93.26;100806.56;5097952;28;20067;-73
2023/06/19 05:30:34;;;;;;;8.13;4.25;;;;;;;21.29;93.53;100820.59;5101887;28;20630;-74
2023/06/19 05:33:00;;;;;;;7.90;5.53;;;;;;;21.18;93.03;100811.56;5097252;28;20396;-73
2023/06/19 05:35:25;;;;;;;7.68;6.15;;;;;;;21.14;96.45;100816.56;5086832;28;20051;-74
2023/06/19 05:37:50;;;;;;;9.18;6.50;;;;;;;21.16;97.03;100813.25;5085634;28;20471;-74
2023/06/19 05:40:16;;;;;;;8.23;5.55;;;;;;;21.28;95.23;100816.13;5087971;28;20055;-74
2023/06/19 05:42:41;;;;;;;7.38;5.70;;;;;;;21.12;94.28;100816.22;5092865;28;20158;-74
2023/06/19 05:45:07;;;;;;;7.07;5.05;;;;;;;21.16;91.91;100821.81;5100433;28;20054;-73
2023/06/19 05:47:33;;;;;;;8.93;5.63;;;;;;;21.11;98.55;100823.16;5100045;28;20039;-74
2023/06/19 05:49:58;;;;;;;8.35;5.53;;;;;;;21.07;96.65;100834.66;5100427;28;20035;-73
2023/06/19 05:52:24;;;;;;;9.15;6.38;;;;;;;21.06;95.33;100821.69;5101210;28;20062;-73
2023/06/19 05:54:50;;;;;;;8.27;6.88;;;;;;;21.18;91.83;100834.31;5096204;28;20027;-74
2023/06/19 05:57:16;;;;;;;8.27;6.18;;;;;;;21.02;95.73;100831.56;5081605;28;20019;-73
2023/06/19 05:59:41;;;;;;;8.05;5.65;;;;;;;21.15;94.95;100835.25;5092498;28;20024;-74
2023/06/19 06:02:07;;;;;;;9.80;5.60;;;;;;;21.32;92.65;100836.75;5087493;28;20038;-73
2023/06/19 06:04:34;;;;;;;7.72;6.50;;;;;;;21.30;93.20;100847.00;5098627;28;20035;-73
2023/06/19 06:06:59;;;;;;;11.10;6.25;;;;;;;21.14;97.16;100841.38;5095949;28;20482;-74
2023/06/19 06:09:25;;;;;;;10.48;5.95;;;;;;;21.23;97.47;100848.00;5094976;28;20437;-73
2023/06/19 06:11:50;;;;;;;8.07;5.68;;;;;;;21.36;93.08;100850.09;5075861;28;20046;-73
2023/06/19 06:14:16;;;;;;;10.88;7.10;;;;;;;21.25;96.22;100856.91;5104151;28;20038;-74
2023/06/19 06:16:41;;;;;;;7.40;5.55;;;;;;;21.39;95.73;100866.25;5081690;28;20051;-75
2023/06/19 06:19:06;;;;;;;13.10;6.90;;;;;;;21.38;94.45;100873.19;5096813;28;20020;-74
2023/06/19 06:21:32;;;;;;;8.43;6.10;;;;;;;21.35;93.48;100868.41;5098660;28;20399;-73
2023/06/19 06:23:57;;;;;;;7.97;6.18;;;;;;;21.87;90.50;100875.75;5086182;28;20082;-74
2023/06/19 06:26:27;;;;;;;5.65;4.45;;;;;;;21.84;87.20;100874.63;5094811;28;20046;-75
2023/06/19 06:28:53;;;;;;;11.02;6.45;;;;;;;21.63;90.13;100881.81;5095447;28;20120;-75
2023/06/19 06:31:18;;;;;;;9.43;6.47;;;;;;;21.67;92.33;100875.97;5086729;28;20155;-74
2023/06/19 06:33:44;;;;;;;7.90;5.75;;;;;;;21.52;93.53;100869.94;5084840;28;20027;-75
2023/06/19 06:36:09;;;;;;;8.70;6.68;;;;;;;21.59;93.19;100871.75;5094068;28;20483;-74
2023/06/19 06:38:34;;;;;;;9.05;6.43;;;;;;;21.56;90.74;100876.31;5090851;28;20361;-74
2023/06/19 06:41:00;;;;;;;9.32;7.13;;;;;;;21.81;90.33;100886.13;5104249;28;20027;-75
2023/06/19 06:43:25;;;;;;;9.15;6.63;;;;;;;21.65;90.89;100885.00;5097752;28;20039;-75
2023/06/19 06:45:50;;;;;;;6.95;6.03;;;;;;;21.89;89.24;100893.97;5082602;28;20031;-75
2023/06/19 06:48:16;;;;;;;8.70;5.95;;;;;;;21.51;90.74;100888.28;5096915;28;20036;-74
2023/06/19 06:50:42;;;;;;;6.95;5.10;;;;;;;22.12;88.44;100900.59;5100758;28;20069;-75
2023/06/19 06:53:08;;;;;;;5.55;4.72;;;;;;;22.28;85.95;100902.53;5098825;28;20426;-75
2023/06/19 06:55:33;;;;;;;8.00;6.82;;;;;;;22.04;85.83;100908.56;5100199;28;20031;-75
2023/06/19 06:57:58;;;;;;;8.07;6.55;;;;;;;22.18;85.53;100920.75;5096783;28;20095;-75
2023/06/19 07:00:24;;;;;;;9.35;6.40;;;;;;;22.47;82.07;100921.44;5093307;28;20035;-75
2023/06/19 07:02:50;;;;;;;7.00;5.60;;;;;;;22.17;83.51;100917.09;5096838;28;20028;-75
2023/06/19 07:05:16;;;;;;;5.97;4.93;;;;;;;22.38;80.78;100932.72;5095661;28;20440;-75
2023/06/19 07:07:41;;;;;;;5.05;4.05;;;;;;;22.18;83.30;100926.44;5095286;28;20059;-74
2023/06/19 07:10:08;;;;;;;5.85;4.50;;;;;;;22.12;83.27;100934.78;5094443;28;20397;-75
2023/06/19 07:12:34;;;;;;;6.63;4.82;;;;;;;22.67;80.81;100934.63;5089790;28;20103;-75
2023/06/19 07:14:59;;;;;;;5.88;4.50;;;;;;;22.16;81.75;100926.09;5092543;28;20455;-74
2023/06/19 07:17:24;;;;;;;8.43;4.38;;;;;;;22.74;81.14;100940.06;5092804;28;20026;-75
2023/06/19 07:19:49;;;;;;;5.25;3.80;;;;;;;22.31;82.46;100930.13;5098566;28;20410;-75
2023/06/19 07:22:15;;;;;;;4.03;3.55;;;;;;;22.27;82.71;100941.66;5091920;28;20031;-75
2023/06/19 07:24:41;;;;;;;4.97;4.18;;;;;;;22.22;82.32;100938.53;5094795;28;20028;-74
2023/06/19 07:27:06;;;;;;;5.15;4.22;;;;;;;22.24;82.90;100951.13;5095597;28;20031;-74
2023/06/19 07:29:34;;;;;;;7.63;4.70;;;;;;;22.31;81.67;100941.53;5093500;28;20031;-75
2023/06/19 07:32:02;;;;;;;6.82;4.60;;;;;;;22.49;80.38;100946.63;5093193;28;20384;-75
2023/06/19 07:34:27;;;;;;;5.20;3.65;;;;;;;22.58;78.95;100943.06;5105614;28;20020;-74
2023/06/19 07:36:53;;;;;;;5.78;4.72;;;;;;;22.72;78.22;100951.13;5096718;28;20032;-74
2023/06/19 07:39:18;;;;;;;5.35;3.95;;;;;;;22.37;82.14;100953.97;5072104;28;20024;-74
2023/06/19 07:41:45;;;;;;;6.60;4.28;;;;;;;22.67;79.49;100958.22;5096051;28;20075;-75
2023/06/19 07:44:11;;;;;;;8.60;6.93;;;;;;;22.09;79.06;100965.03;5096986;28;20027;-75
2023/06/19 07:46:36;;;;;;;6.25;4.80;;;;;;;23.09;75.76;100971.47;5073756;28;20444;-75
2023/06/19 07:49:01;;;;;;;8.95;5.50;;;;;;;22.82;77.29;100972.78;5095596;28;20356;-74
2023/06/19 07:51:27;;;;;;;9.85;7.22;;;;;;;22.64;75.90;100972.59;5094792;28;20053;-74
2023/06/19 07:53:52;;;;;;;12.18;8.27;;;;;;;22.45;76.70;100980.16;5094992;28;20090;-75
2023/06/19 07:56:17;;;;;;;11.05;7.13;;;;;;;22.37;77.15;100985.34;5096700;28;20567;-75
2023/06/19 07:58:43;;;;;;;7.38;6.38;;;;;;;22.39;78.32;100994.22;5092265;28;20040;-75
2023/06/19 08:01:08;;;;;;;8.52;7.63;;;;;;;22.46;77.40;100993.97;5095570;28;20080;-75
2023/06/19 08:03:33;;;;;;;9.00;6.43;;;;;;;22.37;79.13;101001.63;5102403;28;20032;-75
2023/06/19 08:05:59;;;;;;;7.97;7.05;;;;;;;22.43;77.87;100997.75;5097168;28;20048;-75
2023/06/19 08:08:24;;;;;;;9.13;7.55;;;;;;;22.60;78.33;101003.31;5095083;28;20051;-75
2023/06/19 08:10:49;;;;;;;7.72;6.45;;;;;;;22.89;75.40;101008.84;5098690;28;20066;-75
2023/06/19 08:13:15;;;;;;;7.28;6.28;;;;;;;22.92;76.54;101011.59;5100023;28;20417;-76
2023/06/19 08:15:40;;;;;;;9.70;6.60;;;;;;;22.98;75.67;101014.66;5078741;28;20085;-75
2023/06/19 08:18:05;;;;;;;9.48;6.82;;;;;;;22.45;78.00;101009.50;5089684;28;20054;-75
2023/06/19 08:20:31;;;;;;;9.25;7.93;;;;;;;22.42;77.69;101010.41;5096030;28;20031;-75
2023/06/19 08:22:56;;;;;;;8.38;7.47;;;;;;;22.52;77.97;101014.97;5093367;28;20028;-76
2023/06/19 08:25:22;;;;;;;9.43;8.43;;;;;;;22.68;77.34;101022.59;5079846;28;20452;-75
2023/06/19 08:27:47;;;;;;;10.13;9.00;;;;;;;22.27;77.63;101021.47;5093862;28;20024;-74
2023/06/19 08:30:13;;;;;;;8.68;7.70;;;;;;;22.32;77.38;101017.25;5092353;28;20039;-75
2023/06/19 08:32:38;;;;;;;8.80;7.88;;;;;;;22.72;75.58;101016.75;5098595;28;20032;-75
2023/06/19 08:35:04;;;;;;;10.50;9.10;;;;;;;22.61;76.31;101019.97;5088507;28;20028;-75
2023/06/19 08:37:30;;;;;;;10.00;8.45;;;;;;;22.87;76.33;101034.97;5091620;28;20048;-74
2023/06/19 08:39:58;;;;;;;9.90;8.05;;;;;;;22.53;78.28;101033.66;5092508;28;20027;-74
2023/06/19 08:42:24;;;;;;;8.32;7.43;;;;;;;22.18;79.75;101037.63;5099652;28;20032;-74
2023/06/19 08:44:49;;;;;;;7.82;6.85;;;;;;;22.15;79.71;101030.00;5095609;28;20028;-74
2023/06/19 08:47:14;;;;;;;17.20;7.68;;;;;;;22.31;76.92;101039.28;5081027;28;20031;-75
2023/06/19 08:49:40;;;;;;;7.60;6.22;;;;;;;22.55;75.28;101040.97;5090297;28;20032;-74
2023/06/19 08:52:06;;;;;;;8.07;5.40;;;;;;;22.72;74.00;101045.28;5093742;28;20051;-74
2023/06/19 08:54:32;;;;;;;7.40;5.53;;;;;;;22.75;74.42;101041.53;5081725;28;20027;-74
2023/06/19 08:57:03;;;;;;;8.23;6.07;;;;;;;22.93;73.97;101047.41;5092881;28;20384;-75
2023/06/19 08:59:31;;;;;;;6.72;4.97;;;;;;;22.79;74.46;101045.06;5091030;28;20042;-74
2023/06/19 09:01:57;;;;;;;8.20;6.07;;;;;;;22.42;75.78;101043.84;5094803;28;20471;-75
2023/06/19 09:04:26;;;;;;;11.65;6.38;;;;;;;22.52;74.28;101072.00;5093610;28;20110;-74
2023/06/19 09:06:57;;;;;;;8.75;6.45;;;;;;;22.80;72.50;101063.78;5097754;28;20032;-75
2023/06/19 09:09:25;;;;;;;6.40;5.57;;;;;;;22.51;73.74;101066.75;5082610;28;20475;-75
2023/06/19 09:12:10;;;;;;;8.75;5.38;;;;;;;23.02;72.09;101085.91;5090119;28;20035;-74
2023/06/19 09:14:44;;;;;;;6.78;4.80;;;;;;;22.99;71.20;101086.81;5088070;28;20050;-75
2023/06/19 09:17:20;;;;;;;9.88;7.38;;;;;;;22.96;72.90;101113.41;5089818;28;20038;-74
2023/06/19 09:19:50;;;;;;;7.65;5.90;;;;;;;23.00;72.64;101096.97;5091572;28;20115;-75
2023/06/19 09:22:20;;;;;;;8.05;5.05;;;;;;;23.33;71.02;101100.34;5085117;28;20474;-75
2023/06/19 09:24:48;;;;;;;8.50;5.93;;;;;;;23.32;71.12;101101.63;5097568;28;20060;-75
2023/06/19 09:27:18;;;;;;;8.65;6.40;;;;;;;23.29;71.25;101099.66;5093201;28;20023;-74
2023/06/19 09:29:47;;;;;;;6.72;5.65;;;;;;;23.20;71.82;101096.72;5080814;28;20027;-74
2023/06/19 09:32:23;;;;;;;6.75;5.63;;;;;;;23.59;70.87;101106.78;5083432;28;20442;-74
2023/06/19 09:34:51;;;;;;;10.05;7.00;;;;;;;23.22;71.94;101112.13;5099980;28;20028;-74
2023/06/19 09:37:23;;;;;;;7.32;5.60;;;;;;;23.27;72.21;101114.41;5087904;28;20045;-74
2023/06/19 09:39:53;;;;;;;10.30;6.82;;;;;;;22.85;73.71;101100.31;5099915;28;20035;-74
2023/06/19 09:42:26;;;;;;;9.52;6.60;;;;;;;22.39;74.26;101091.19;5102471;28;20034;-74
2023/06/19 09:44:55;;;;;;;8.38;5.13;;;;;;;22.91;73.69;101109.88;5104024;28;20478;-75
2023/06/19 09:47:23;;;;;;;14.45;7.15;;;;;;;22.86;72.76;101115.38;5077705;28;20039;-75
2023/06/19 09:49:54;;;;;;;11.65;7.13;;;;;;;22.84;72.65;101112.97;5097519;28;20465;-75
2023/06/19 09:52:22;;;;;;;10.68;7.13;;;;;;;22.87;72.94;101111.25;5097490;28;20028;-75
2023/06/19 09:54:49;;;;;;;9.13;6.47;;;;;;;23.03;72.72;101116.06;5098977;28;20981;-75
2023/06/19 09:57:14;;;;;;;9.38;7.38;;;;;;;22.79;74.04;101112.72;5097171;28;20630;-75
2023/06/19 09:59:41;;;;;;;13.60;9.00;;;;;;;22.62;73.41;101109.19;5098946;28;20114;-74
2023/06/19 10:02:08;;;;;;;10.68;6.68;;;;;;;23.06;72.10;101123.69;5093555;28;20035;-75
2023/06/19 10:04:49;;;;;;;10.52;7.50;;;;;;;23.16;72.06;101121.75;5097781;28;20035;-75
2023/06/19 10:07:16;;;;;;;13.20;9.00;;;;;;;23.17;72.46;101121.31;5079965;28;20028;-75
2023/06/19 10:09:42;;;;;;;13.02;8.32;;;;;;;23.01;71.94;101125.09;5085404;28;20031;-75
2023/06/19 10:12:13;;;;;;;11.63;8.45;;;;;;;22.91;71.92;101127.00;5093459;28;20400;-75
2023/06/19 10:14:48;;;;;;;12.52;7.78;;;;;;;23.24;69.97;101129.63;5100168;28;20063;-75
2023/06/19 10:17:16;;;;;;;11.02;7.35;;;;;;;23.50;70.62;101120.97;5093175;28;20028;-75
2023/06/19 10:19:50;;;;;;;12.40;6.85;;;;;;;23.59;69.36;101141.06;5101555;28;20047;-75
2023/06/19 10:22:20;;;;;;;10.15;6.65;;;;;;;23.85;68.43;101130.34;5071426;28;20024;-75
2023/06/19 10:24:50;;;;;;;9.35;7.13;;;;;;;23.64;69.13;101129.03;5098998;28;20043;-75
2023/06/19 10:27:21;;;;;;;10.63;6.70;;;;;;;23.86;69.32;101142.56;5098924;28;20106;-76
2023/06/19 10:29:53;;;;;;;11.73;7.30;;;;;;;23.91;68.39;101145.63;5093731;28;20592;-76
2023/06/19 10:32:19;;;;;;;10.05;8.18;;;;;;;23.38;70.85;101131.19;5076481;28;20032;-75
2023/06/19 10:34:51;;;;;;;18.85;9.95;;;;;;;23.37;70.44;101140.22;5098574;28;20039;-75
2023/06/19 10:37:17;;;;;;;8.82;7.05;;;;;;;23.83;70.15;101127.16;5094341;28;20028;-75
2023/06/19 10:39:43;;;;;;;9.57;8.18;;;;;;;24.00;68.28;101136.31;5097339;28;20440;-74
2023/06/19 10:42:10;;;;;;;9.82;6.93;;;;;;;24.05;67.56;101138.56;5092301;28;20034;-75
2023/06/19 10:44:36;;;;;;;10.73;6.95;;;;;;;24.23;67.38;101137.13;5095709;28;20093;-75
2023/06/19 10:47:02;;;;;;;12.93;7.60;;;;;;;23.94;68.59;101132.47;5094785;28;20475;-75
2023/06/19 10:49:28;;;;;;;10.40;8.25;;;;;;;24.21;66.63;101123.28;5095650;28;20043;-75
2023/06/19 10:51:58;;;;;;;11.15;7.13;;;;;;;24.26;66.60;101136.16;5097884;28;20023;-75
2023/06/19 10:54:24;;;;;;;10.98;7.38;;;;;;;23.81;67.47;101126.03;5098485;28;20019;-75
2023/06/19 10:56:51;;;;;;;9.65;7.20;;;;;;;23.80;66.96;101138.72;5096101;28;20040;-75
2023/06/19 10:59:16;;;;;;;10.95;7.72;;;;;;;23.46;68.49;101148.84;5095967;28;20560;-74
2023/06/19 11:01:45;;;;;;;10.52;7.18;;;;;;;23.96;66.89;101132.81;5096713;28;20031;-74
2023/06/19 11:04:12;;;;;;;12.20;7.63;;;;;;;24.05;66.49;101144.28;5091889;28;20450;-75
2023/06/19 11:06:39;;;;;;;11.90;7.68;;;;;;;23.97;68.17;101142.16;5097414;28;20033;-75
2023/06/19 11:09:10;;;;;;;13.32;7.95;;;;;;;24.36;66.50;101143.53;5081879;28;20480;-75
2023/06/19 11:11:39;;;;;;;9.98;7.30;;;;;;;24.23;65.06;101149.34;5095856;28;20026;-75
2023/06/19 11:14:05;;;;;;;9.57;6.82;;;;;;;24.37;65.68;101136.56;5102615;28;20027;-74
2023/06/19 11:16:31;;;;;;;11.25;7.50;;;;;;;24.66;63.92;101138.31;5089522;28;20031;-75
2023/06/19 11:18:57;;;;;;;11.23;8.13;;;;;;;24.99;64.40;101138.59;5094514;28;20039;-74
2023/06/19 11:21:34;;;;;;;10.75;8.05;;;;;;;24.67;62.37;101135.00;5093459;28;20475;-76